createdAt,value
2023-03-27T00:00:10.085Z,15.50
2023-03-27T00:01:09.983Z,15.90
2023-03-27T00:02:10.017Z,14.70
2023-03-27T00:03:10.014Z,16.40
2023-03-27T00:04:10.099Z,14.10
2023-03-27T00:05:10.042Z,16.60
2023-03-27T00:06:09.963Z,20.00
2023-03-27T00:07:09.912Z,13.30
2023-03-27T00:08:09.940Z,15.20
2023-03-27T00:09:09.892Z,14.00
2023-03-27T00:10:09.961Z,13.40
2023-03-27T00:11:09.884Z,16.10
2023-03-27T00:12:09.863Z,14.20
2023-03-27T00:13:09.857Z,17.70
2023-03-27T00:14:09.941Z,12.70
2023-03-27T00:15:09.883Z,13.30
2023-03-27T00:16:09.946Z,12.90
2023-03-27T00:17:09.813Z,14.80
2023-03-27T00:18:09.846Z,13.30
2023-03-27T00:19:09.836Z,17.50
2023-03-27T00:20:09.907Z,17.60
2023-03-27T00:21:09.776Z,13.20
2023-03-27T00:22:09.816Z,11.50
2023-03-27T00:23:09.743Z,14.40
2023-03-27T00:24:09.932Z,12.20
2023-03-27T00:25:09.732Z,15.70
2023-03-27T00:26:09.847Z,16.60
2023-03-27T00:27:09.694Z,18.70
2023-03-27T00:28:09.776Z,14.50
2023-03-27T00:29:09.689Z,15.60
2023-03-27T00:30:09.713Z,17.40
2023-03-27T00:31:09.712Z,19.00
2023-03-27T00:32:09.726Z,16.60
2023-03-27T00:33:09.663Z,15.20
2023-03-27T00:34:09.732Z,15.10
2023-03-27T00:35:09.610Z,12.00
2023-03-27T00:36:09.671Z,14.10
2023-03-27T00:37:09.605Z,13.80
2023-03-27T00:38:09.602Z,18.30
2023-03-27T00:39:09.581Z,12.20
2023-03-27T00:40:09.719Z,15.90
2023-03-27T00:41:09.568Z,17.10
2023-03-27T00:42:09.608Z,14.50
2023-03-27T00:43:09.530Z,17.00
2023-03-27T00:44:09.586Z,15.00
2023-03-27T00:45:09.571Z,17.70
2023-03-27T00:46:09.567Z,20.30
2023-03-27T00:47:09.500Z,14.40
2023-03-27T00:48:09.477Z,16.00
2023-03-27T00:49:09.467Z,13.20
2023-03-27T00:50:09.471Z,13.50
2023-03-27T00:51:09.467Z,19.10
2023-03-27T00:52:09.510Z,18.70
2023-03-27T00:53:09.426Z,13.70
2023-03-27T00:54:09.685Z,18.10
2023-03-27T00:55:09.422Z,13.00
2023-03-27T00:56:09.437Z,16.90
2023-03-27T00:57:09.505Z,16.00
2023-03-27T00:58:09.566Z,13.40
2023-03-27T00:59:09.402Z,14.80
2023-03-27T01:00:09.635Z,13.80
2023-03-27T01:01:09.408Z,14.60
2023-03-27T01:02:09.379Z,16.00
2023-03-27T01:03:09.421Z,15.40
2023-03-27T01:04:09.432Z,15.10
2023-03-27T01:05:09.296Z,16.20
2023-03-27T01:06:09.371Z,15.70
2023-03-27T01:07:09.301Z,19.70
2023-03-27T01:08:09.367Z,18.50
2023-03-27T01:09:09.349Z,13.10
2023-03-27T01:10:09.315Z,13.70
2023-03-27T01:11:09.234Z,13.00
2023-03-27T01:12:09.237Z,15.20
2023-03-27T01:13:09.233Z,14.00
2023-03-27T01:14:09.256Z,14.50
2023-03-27T01:15:09.180Z,19.30
2023-03-27T01:16:09.292Z,16.20
2023-03-27T01:17:09.242Z,17.30
2023-03-27T01:18:09.290Z,16.70
2023-03-27T01:19:09.248Z,14.90
2023-03-27T01:20:09.325Z,14.40
2023-03-27T01:21:09.137Z,13.50
2023-03-27T01:22:09.123Z,16.90
2023-03-27T01:23:09.113Z,16.00
2023-03-27T01:24:09.109Z,15.00
2023-03-27T01:25:09.068Z,14.40
2023-03-27T01:26:09.149Z,17.50
2023-03-27T01:27:09.095Z,14.10
2023-03-27T01:28:09.060Z,15.90
2023-03-27T01:29:09.092Z,15.30
2023-03-27T01:30:09.029Z,14.20
2023-03-27T01:31:09.044Z,13.50
2023-03-27T01:32:09.241Z,19.20
2023-03-27T01:33:09.055Z,16.30
2023-03-27T01:34:09.030Z,19.90
2023-03-27T01:35:08.958Z,18.90
2023-03-27T01:36:09.029Z,14.70
2023-03-27T01:37:08.959Z,13.40
2023-03-27T01:38:09.008Z,12.70
2023-03-27T01:39:08.957Z,15.60
2023-03-27T01:40:08.932Z,13.00
2023-03-27T01:41:09.013Z,18.50
2023-03-27T01:42:08.985Z,18.90
2023-03-27T01:43:08.930Z,14.90
2023-03-27T01:44:08.950Z,17.60
2023-03-27T01:45:08.884Z,15.70
2023-03-27T01:46:08.916Z,12.00
2023-03-27T01:47:08.839Z,14.40
2023-03-27T01:48:08.816Z,17.10
2023-03-27T01:49:08.962Z,17.40
2023-03-27T01:50:08.895Z,13.30
2023-03-27T01:51:08.929Z,16.50
2023-03-27T01:52:08.826Z,15.70
2023-03-27T01:53:08.793Z,18.40
2023-03-27T01:54:08.864Z,16.70
2023-03-27T01:55:08.845Z,17.50
2023-03-27T01:56:08.814Z,14.60
2023-03-27T01:57:08.810Z,14.80
2023-03-27T01:58:08.896Z,13.70
2023-03-27T01:59:08.727Z,18.50
2023-03-27T02:00:18.237Z,12.90
2023-03-27T02:01:10.085Z,14.80
2023-03-27T02:02:08.749Z,15.80
2023-03-27T02:03:08.656Z,15.10
2023-03-27T02:04:08.651Z,18.00
2023-03-27T02:05:08.723Z,15.70
2023-03-27T02:06:08.763Z,13.10
2023-03-27T02:07:08.676Z,19.30
2023-03-27T02:08:08.624Z,13.30
2023-03-27T02:09:08.637Z,17.80
2023-03-27T02:10:08.804Z,14.70
2023-03-27T02:11:08.639Z,17.70
2023-03-27T02:12:08.696Z,10.80
2023-03-27T02:13:08.566Z,12.80
2023-03-27T02:14:08.563Z,16.10
2023-03-27T02:15:08.631Z,12.50
2023-03-27T02:16:09.536Z,16.20
2023-03-27T02:17:08.506Z,14.30
2023-03-27T02:18:08.517Z,16.60
2023-03-27T02:19:08.632Z,17.60
2023-03-27T02:20:08.513Z,13.20
2023-03-27T02:21:08.555Z,19.30
2023-03-27T02:22:08.516Z,14.30
2023-03-27T02:23:08.567Z,12.50
2023-03-27T02:24:08.562Z,14.90
2023-03-27T02:25:08.426Z,13.20
2023-03-27T02:26:08.475Z,15.30
2023-03-27T02:27:08.409Z,15.10
2023-03-27T02:28:08.674Z,13.30
2023-03-27T02:29:08.454Z,20.30
2023-03-27T02:30:08.437Z,14.70
2023-03-27T02:31:32.779Z,13.60
2023-03-27T02:32:09.495Z,19.00
2023-03-27T02:33:08.532Z,14.40
2023-03-27T02:34:08.353Z,14.80
2023-03-27T02:35:08.334Z,12.00
2023-03-27T02:36:09.383Z,18.50
2023-03-27T02:37:08.395Z,19.60
2023-03-27T02:38:08.338Z,11.60
2023-03-27T02:39:08.280Z,14.10
2023-03-27T02:40:08.355Z,15.20
2023-03-27T02:41:08.269Z,17.30
2023-03-27T02:42:08.300Z,10.80
2023-03-27T02:43:08.493Z,20.80
2023-03-27T02:44:08.335Z,14.60
2023-03-27T02:45:08.285Z,10.90
2023-03-27T02:46:08.378Z,15.10
2023-03-27T02:47:08.378Z,15.50
2023-03-27T02:48:08.333Z,15.30
2023-03-27T02:49:08.200Z,13.70
2023-03-27T02:50:08.241Z,12.70
2023-03-27T02:51:08.210Z,15.30
2023-03-27T02:52:08.248Z,11.80
2023-03-27T02:53:08.248Z,12.20
2023-03-27T02:54:08.247Z,16.90
2023-03-27T02:55:08.164Z,10.90
2023-03-27T02:56:08.130Z,15.10
2023-03-27T02:57:08.254Z,14.40
2023-03-27T02:58:08.178Z,15.10
2023-03-27T02:59:08.113Z,20.40
2023-03-27T03:00:08.093Z,17.70
2023-03-27T03:01:08.137Z,13.10
2023-03-27T03:02:08.133Z,18.40
2023-03-27T03:03:08.127Z,15.90
2023-03-27T03:04:08.360Z,11.90
2023-03-27T03:05:08.023Z,15.50
2023-03-27T03:06:08.061Z,16.20
2023-03-27T03:07:08.054Z,15.50
2023-03-27T03:08:08.121Z,14.20
2023-03-27T03:09:07.971Z,14.10
2023-03-27T03:10:09.583Z,12.20
2023-03-27T03:11:08.070Z,15.80
2023-03-27T03:12:08.137Z,15.80
2023-03-27T03:13:07.953Z,15.90
2023-03-27T03:14:08.111Z,13.60
2023-03-27T03:15:07.919Z,16.50
2023-03-27T03:16:07.919Z,14.30
2023-03-27T03:17:07.949Z,16.90
2023-03-27T03:18:08.129Z,12.30
2023-03-27T03:19:07.949Z,15.00
2023-03-27T03:20:07.878Z,14.10
2023-03-27T03:21:07.850Z,21.10
2023-03-27T03:22:07.885Z,12.70
2023-03-27T03:23:07.937Z,11.70
2023-03-27T03:24:07.829Z,15.60
2023-03-27T03:25:07.876Z,14.40
2023-03-27T03:26:07.859Z,11.30
2023-03-27T03:27:07.806Z,13.80
2023-03-27T03:28:07.786Z,11.50
2023-03-27T03:29:07.768Z,14.90
2023-03-27T03:30:07.982Z,11.60
2023-03-27T03:31:07.772Z,12.50
2023-03-27T03:32:07.778Z,10.90
2023-03-27T03:33:07.759Z,11.60
2023-03-27T03:34:07.929Z,15.20
2023-03-27T03:35:07.708Z,20.00
2023-03-27T03:36:07.782Z,13.00
2023-03-27T03:37:07.691Z,10.60
2023-03-27T03:38:07.698Z,15.90
2023-03-27T03:39:07.650Z,12.00
2023-03-27T03:40:07.694Z,14.20
2023-03-27T03:41:07.642Z,12.50
2023-03-27T03:42:07.642Z,12.20
2023-03-27T03:43:07.655Z,11.60
2023-03-27T03:44:07.683Z,18.40
2023-03-27T03:45:07.606Z,11.80
2023-03-27T03:46:07.916Z,13.60
2023-03-27T03:47:07.586Z,19.10
2023-03-27T03:48:07.741Z,12.70
2023-03-27T03:49:07.616Z,13.30
2023-03-27T03:50:07.686Z,9.30
2023-03-27T03:51:07.537Z,11.10
2023-03-27T03:52:07.583Z,13.00
2023-03-27T03:53:07.534Z,10.70
2023-03-27T03:54:07.526Z,15.30
2023-03-27T03:55:07.502Z,10.70
2023-03-27T03:56:07.494Z,13.80
2023-03-27T03:57:07.545Z,13.80
2023-03-27T03:58:07.533Z,11.80
2023-03-27T03:59:07.463Z,12.10
2023-03-27T04:00:07.573Z,15.00
2023-03-27T04:01:07.475Z,12.00
2023-03-27T04:02:07.475Z,13.30
2023-03-27T04:03:07.536Z,16.00
2023-03-27T04:04:07.558Z,15.30
2023-03-27T04:05:08.941Z,9.90
2023-03-27T04:06:07.640Z,15.70
2023-03-27T04:07:07.360Z,13.90
2023-03-27T04:08:07.454Z,11.80
2023-03-27T04:09:07.357Z,12.60
2023-03-27T04:10:07.361Z,13.20
2023-03-27T04:11:07.315Z,12.20
2023-03-27T04:12:07.352Z,14.10
2023-03-27T04:13:07.333Z,15.50
2023-03-27T04:14:07.302Z,17.80
2023-03-27T04:15:07.307Z,14.00
2023-03-27T04:16:07.374Z,13.40
2023-03-27T04:17:07.362Z,12.40
2023-03-27T04:18:07.352Z,13.40
2023-03-27T04:19:07.402Z,12.10
2023-03-27T04:20:07.326Z,14.10
2023-03-27T04:21:07.212Z,11.20
2023-03-27T04:22:07.251Z,14.70
2023-03-27T04:23:07.232Z,15.60
2023-03-27T04:24:07.501Z,16.40
2023-03-27T04:25:07.234Z,18.30
2023-03-27T04:26:07.231Z,14.00
2023-03-27T04:27:07.169Z,15.20
2023-03-27T04:28:07.176Z,16.80
2023-03-27T04:29:07.210Z,13.70
2023-03-27T04:30:07.300Z,14.20
2023-03-27T04:31:07.180Z,15.20
2023-03-27T04:32:07.180Z,15.10
2023-03-27T04:33:07.121Z,12.50
2023-03-27T04:34:07.088Z,18.00
2023-03-27T04:35:07.296Z,20.70
2023-03-27T04:36:08.025Z,15.80
2023-03-27T04:37:07.049Z,20.70
2023-03-27T04:38:07.122Z,16.10
2023-03-27T04:39:07.068Z,11.90
2023-03-27T04:40:07.214Z,16.10
2023-03-27T04:41:07.039Z,17.20
2023-03-27T04:42:07.109Z,15.10
2023-03-27T04:43:07.046Z,17.90
2023-03-27T04:44:07.034Z,12.00
2023-03-27T04:45:06.999Z,14.30
2023-03-27T04:46:07.046Z,14.40
2023-03-27T04:48:07.012Z,17.80
2023-03-27T04:49:06.985Z,14.20
2023-03-27T04:50:06.991Z,15.10
2023-03-27T04:51:06.931Z,11.60
2023-03-27T04:52:06.919Z,15.60
2023-03-27T04:53:06.932Z,16.30
2023-03-27T04:54:06.926Z,17.30
2023-03-27T04:55:06.895Z,15.00
2023-03-27T04:56:06.974Z,14.80
2023-03-27T04:57:06.871Z,14.90
2023-03-27T04:58:06.886Z,11.20
2023-03-27T04:59:06.829Z,12.80
2023-03-27T05:00:06.857Z,17.10
2023-03-27T05:01:06.864Z,9.80
2023-03-27T05:02:06.932Z,16.10
2023-03-27T05:03:06.932Z,20.80
2023-03-27T05:04:06.855Z,13.80
2023-03-27T05:05:06.792Z,12.20
2023-03-27T05:06:06.792Z,15.80
2023-03-27T05:07:06.755Z,11.70
2023-03-27T05:08:06.872Z,18.70
2023-03-27T05:09:06.724Z,14.20
2023-03-27T05:10:06.775Z,17.50
2023-03-27T05:11:06.694Z,17.80
2023-03-27T05:12:06.759Z,17.60
2023-03-27T05:13:06.683Z,16.10
2023-03-27T05:14:06.760Z,13.60
2023-03-27T05:15:07.870Z,17.70
2023-03-27T05:16:08.327Z,18.60
2023-03-27T05:17:07.484Z,14.20
2023-03-27T05:18:09.297Z,16.50
2023-03-27T05:19:10.663Z,17.00
2023-03-27T05:20:07.397Z,15.10
2023-03-27T05:21:08.359Z,16.70
2023-03-27T05:22:07.384Z,14.10
2023-03-27T05:23:07.243Z,15.90
2023-03-27T05:24:07.120Z,14.80
2023-03-27T05:25:06.545Z,14.20
2023-03-27T05:26:06.635Z,17.20
2023-03-27T05:27:06.535Z,17.80
2023-03-27T05:28:06.631Z,17.90
2023-03-27T05:29:06.511Z,14.10
2023-03-27T05:30:06.552Z,14.40
2023-03-27T05:31:06.529Z,12.70
2023-03-27T05:32:06.601Z,16.60
2023-03-27T05:33:06.502Z,13.40
2023-03-27T05:34:06.499Z,20.90
2023-03-27T05:35:06.454Z,15.70
2023-03-27T05:36:06.897Z,14.80
2023-03-27T05:37:06.441Z,19.00
2023-03-27T05:38:06.519Z,16.20
2023-03-27T05:39:06.418Z,13.30
2023-03-27T05:40:06.465Z,12.00
2023-03-27T05:41:06.412Z,10.60
2023-03-27T05:42:06.389Z,13.00
2023-03-27T05:43:07.584Z,16.50
2023-03-27T05:44:06.395Z,10.70
2023-03-27T05:45:06.363Z,17.00
2023-03-27T05:46:06.503Z,17.40
2023-03-27T05:47:06.319Z,17.50
2023-03-27T05:48:06.362Z,14.50
2023-03-27T05:49:06.361Z,10.20
2023-03-27T05:50:06.347Z,14.40
2023-03-27T05:51:06.295Z,12.60
2023-03-27T05:52:06.415Z,12.70
2023-03-27T05:53:06.255Z,10.20
2023-03-27T05:54:06.462Z,11.10
2023-03-27T05:55:06.234Z,12.00
2023-03-27T05:56:06.250Z,12.90
2023-03-27T05:57:06.250Z,16.00
2023-03-27T05:58:06.210Z,10.90
2023-03-27T05:59:06.193Z,15.30
2023-03-27T06:00:06.270Z,18.00
2023-03-27T06:01:06.182Z,15.80
2023-03-27T06:02:06.420Z,14.70
2023-03-27T06:03:06.360Z,15.60
2023-03-27T06:04:06.253Z,15.20
2023-03-27T06:05:06.134Z,18.20
2023-03-27T06:06:06.138Z,12.00
2023-03-27T06:07:06.107Z,14.40
2023-03-27T06:08:06.176Z,14.90
2023-03-27T06:09:06.105Z,16.10
2023-03-27T06:10:06.162Z,18.30
2023-03-27T06:11:07.105Z,13.70
2023-03-27T06:12:06.119Z,10.70
2023-03-27T06:13:06.080Z,13.00
2023-03-27T06:14:06.123Z,17.30
2023-03-27T06:15:06.048Z,16.90
2023-03-27T06:16:06.179Z,19.20
2023-03-27T06:17:06.006Z,16.00
2023-03-27T06:18:06.252Z,17.90
2023-03-27T06:19:05.995Z,19.60
2023-03-27T06:20:05.997Z,15.40
2023-03-27T06:21:05.976Z,13.70
2023-03-27T06:22:05.995Z,19.20
2023-03-27T06:23:05.943Z,19.70
2023-03-27T06:24:05.996Z,13.20
2023-03-27T06:25:05.935Z,12.60
2023-03-27T06:26:06.024Z,15.10
2023-03-27T06:27:05.906Z,19.10
2023-03-27T06:28:06.042Z,16.60
2023-03-27T06:29:07.870Z,14.60
2023-03-27T06:30:05.875Z,14.80
2023-03-27T06:31:05.889Z,13.30
2023-03-27T06:32:05.848Z,17.80
2023-03-27T06:33:05.956Z,14.70
2023-03-27T06:34:05.835Z,14.60
2023-03-27T06:35:05.816Z,14.10
2023-03-27T06:36:05.886Z,17.50
2023-03-27T06:37:05.813Z,15.40
2023-03-27T06:38:05.781Z,15.40
2023-03-27T06:39:05.811Z,14.60
2023-03-27T06:40:05.817Z,15.00
2023-03-27T06:41:05.778Z,15.00
2023-03-27T06:42:05.785Z,16.20
2023-03-27T06:43:05.816Z,10.40
2023-03-27T06:44:05.724Z,14.00
2023-03-27T06:45:05.778Z,15.50
2023-03-27T06:46:05.814Z,16.50
2023-03-27T06:47:05.709Z,18.80
2023-03-27T06:48:16.268Z,15.40
2023-03-27T06:49:06.668Z,11.40
2023-03-27T06:50:05.743Z,18.20
2023-03-27T06:51:05.692Z,13.70
2023-03-27T06:52:05.644Z,18.30
2023-03-27T06:53:10.066Z,19.30
2023-03-27T06:54:06.636Z,15.10
2023-03-27T06:55:05.624Z,12.20
2023-03-27T06:56:06.656Z,14.10
2023-03-27T06:57:05.658Z,13.30
2023-03-27T06:58:05.568Z,16.90
2023-03-27T06:59:05.556Z,15.30
2023-03-27T07:00:05.573Z,16.50
2023-03-27T07:01:05.549Z,15.10
2023-03-27T07:02:05.716Z,15.10
2023-03-27T07:03:05.556Z,10.60
2023-03-27T07:04:05.503Z,15.00
2023-03-27T07:05:05.725Z,13.50
2023-03-27T07:06:05.538Z,11.30
2023-03-27T07:07:05.470Z,15.40
2023-03-27T07:08:18.700Z,11.30
2023-03-27T07:09:06.458Z,16.70
2023-03-27T07:10:06.021Z,14.10
2023-03-27T07:11:11.606Z,13.70
2023-03-27T07:12:06.462Z,16.40
2023-03-27T07:13:05.496Z,10.40
2023-03-27T07:14:05.418Z,15.90
2023-03-27T07:15:05.426Z,15.80
2023-03-27T07:16:05.673Z,10.90
2023-03-27T07:17:06.491Z,16.00
2023-03-27T07:18:05.412Z,13.70
2023-03-27T07:19:05.370Z,16.00
2023-03-27T07:20:05.372Z,17.30
2023-03-27T07:21:05.330Z,15.60
2023-03-27T07:22:05.334Z,18.60
2023-03-27T07:23:05.299Z,13.10
2023-03-27T07:24:05.286Z,17.10
2023-03-27T07:25:05.354Z,13.60
2023-03-27T07:26:05.423Z,16.10
2023-03-27T07:27:05.262Z,13.90
2023-03-27T07:28:06.364Z,14.20
2023-03-27T07:29:05.366Z,17.70
2023-03-27T07:30:05.242Z,16.40
2023-03-27T07:32:08.069Z,12.10
2023-03-27T07:33:05.319Z,12.60
2023-03-27T07:34:05.341Z,12.50
2023-03-27T07:35:05.191Z,10.40
2023-03-27T07:36:05.224Z,8.20
2023-03-27T07:37:05.195Z,11.80
2023-03-27T07:38:05.166Z,12.00
2023-03-27T07:39:05.127Z,11.90
2023-03-27T07:40:05.168Z,8.00
2023-03-27T07:41:05.118Z,9.70
2023-03-27T07:42:05.124Z,9.30
2023-03-27T07:43:05.084Z,7.90
2023-03-27T07:44:05.108Z,11.90
2023-03-27T07:45:05.096Z,8.40
2023-03-27T07:46:05.168Z,9.50
2023-03-27T07:47:05.042Z,6.80
2023-03-27T07:48:05.118Z,9.00
2023-03-27T07:49:05.028Z,8.30
2023-03-27T07:50:05.072Z,10.90
2023-03-27T07:51:13.502Z,6.70
2023-03-27T07:52:05.995Z,8.50
2023-03-27T07:53:04.993Z,8.60
2023-03-27T07:54:04.994Z,9.30
2023-03-27T07:55:04.949Z,9.80
2023-03-27T07:56:04.958Z,7.40
2023-03-27T07:57:05.023Z,7.70
2023-03-27T07:58:04.972Z,8.20
2023-03-27T07:59:04.920Z,8.10
2023-03-27T08:00:05.262Z,8.40
2023-03-27T08:01:04.914Z,9.20
2023-03-27T08:02:04.941Z,5.00
2023-03-27T08:03:05.012Z,6.60
2023-03-27T08:04:04.929Z,7.60
2023-03-27T08:05:05.038Z,11.90
2023-03-27T08:06:05.268Z,10.30
2023-03-27T08:07:04.869Z,6.50
2023-03-27T08:08:05.166Z,7.50
2023-03-27T08:09:04.809Z,7.60
2023-03-27T08:10:04.814Z,9.00
2023-03-27T08:11:04.812Z,10.00
2023-03-27T08:12:04.937Z,10.30
2023-03-27T08:13:04.752Z,7.40
2023-03-27T08:14:04.980Z,6.00
2023-03-27T08:15:04.736Z,10.70
2023-03-27T08:16:04.826Z,6.60
2023-03-27T08:17:15.055Z,6.60
2023-03-27T08:18:05.767Z,10.80
2023-03-27T08:19:04.743Z,8.80
2023-03-27T08:20:04.717Z,8.00
2023-03-27T08:21:04.693Z,7.50
2023-03-27T08:22:04.703Z,9.70
2023-03-27T08:23:04.648Z,6.20
2023-03-27T08:24:04.693Z,10.50
2023-03-27T08:25:04.653Z,8.00
2023-03-27T08:26:04.676Z,8.40
2023-03-27T08:27:04.604Z,8.20
2023-03-27T08:28:04.716Z,11.20
2023-03-27T08:29:04.592Z,5.80
2023-03-27T08:30:04.675Z,8.80
2023-03-27T08:31:04.642Z,5.50
2023-03-27T08:32:04.654Z,7.80
2023-03-27T08:33:04.589Z,7.60
2023-03-27T08:34:04.594Z,7.10
2023-03-27T08:35:04.516Z,5.80
2023-03-27T08:36:04.588Z,6.20
2023-03-27T08:37:04.521Z,8.00
2023-03-27T08:38:07.352Z,8.90
2023-03-27T08:39:05.473Z,9.40
2023-03-27T08:40:04.510Z,6.40
2023-03-27T08:41:04.471Z,7.40
2023-03-27T08:42:04.858Z,8.10
2023-03-27T08:43:04.439Z,7.40
2023-03-27T08:44:04.457Z,6.60
2023-03-27T08:45:04.408Z,3.80
2023-03-27T08:46:04.494Z,9.50
2023-03-27T08:47:04.415Z,8.70
2023-03-27T08:48:04.536Z,12.80
2023-03-27T08:49:04.372Z,11.70
2023-03-27T08:50:04.367Z,11.20
2023-03-27T08:51:04.431Z,10.10
2023-03-27T08:52:04.410Z,10.60
2023-03-27T08:53:04.326Z,9.00
2023-03-27T08:54:04.441Z,10.60
2023-03-27T08:55:04.333Z,10.30
2023-03-27T08:56:04.392Z,9.40
2023-03-27T08:57:04.332Z,11.40
2023-03-27T08:58:04.314Z,9.70
2023-03-27T08:59:04.296Z,7.30
2023-03-27T09:00:04.277Z,9.20
2023-03-27T09:01:04.264Z,10.50
2023-03-27T09:02:04.320Z,8.20
2023-03-27T09:03:04.317Z,6.80
2023-03-27T09:04:04.265Z,7.00
2023-03-27T09:05:04.382Z,8.20
2023-03-27T09:06:04.561Z,8.00
2023-03-27T09:07:04.369Z,9.10
2023-03-27T09:08:04.237Z,9.20
2023-03-27T09:09:04.323Z,10.30
2023-03-27T09:10:04.172Z,8.90
2023-03-27T09:11:04.229Z,6.70
2023-03-27T09:12:04.141Z,11.40
2023-03-27T09:13:04.141Z,9.50
2023-03-27T09:14:04.133Z,8.40
2023-03-27T09:15:04.127Z,5.70
2023-03-27T09:16:04.278Z,5.80
2023-03-27T09:17:04.294Z,6.70
2023-03-27T09:18:04.404Z,6.60
2023-03-27T09:19:04.050Z,8.20
2023-03-27T09:20:04.156Z,5.70
2023-03-27T09:21:04.094Z,7.30
2023-03-27T09:22:04.051Z,8.80
2023-03-27T09:23:04.016Z,8.80
2023-03-27T09:24:04.111Z,7.20
2023-03-27T09:25:03.988Z,6.50
2023-03-27T09:26:03.998Z,7.00
2023-03-27T09:27:07.327Z,6.70
2023-03-27T09:28:03.980Z,7.40
2023-03-27T09:29:03.936Z,6.70
2023-03-27T09:30:05.840Z,6.20
2023-03-27T09:31:03.924Z,7.30
2023-03-27T09:32:03.926Z,7.30
2023-03-27T09:33:03.921Z,9.30
2023-03-27T09:34:03.939Z,5.40
2023-03-27T09:35:03.870Z,5.90
2023-03-27T09:36:03.910Z,6.70
2023-03-27T09:37:03.841Z,7.20
2023-03-27T09:38:04.017Z,6.10
2023-03-27T09:39:03.865Z,9.40
2023-03-27T09:40:03.812Z,6.10
2023-03-27T09:41:03.820Z,5.50
2023-03-27T09:42:07.220Z,9.20
2023-03-27T09:43:03.845Z,7.30
2023-03-27T09:44:03.841Z,7.70
2023-03-27T09:45:03.774Z,9.20
2023-03-27T09:46:04.063Z,8.80
2023-03-27T09:47:03.773Z,7.20
2023-03-27T09:48:03.812Z,11.90
2023-03-27T09:49:03.731Z,8.90
2023-03-27T09:50:03.724Z,8.60
2023-03-27T09:51:03.705Z,8.30
2023-03-27T09:52:03.724Z,7.70
2023-03-27T09:53:03.669Z,5.70
2023-03-27T09:54:03.669Z,7.20
2023-03-27T09:55:03.653Z,7.40
2023-03-27T09:56:03.713Z,6.80
2023-03-27T09:57:03.671Z,9.50
2023-03-27T09:58:03.652Z,10.10
2023-03-27T09:59:03.605Z,11.10
2023-03-27T10:00:03.633Z,10.00
2023-03-27T10:01:03.651Z,10.40
2023-03-27T10:02:04.221Z,7.00
2023-03-27T10:03:03.774Z,8.50
2023-03-27T10:04:04.338Z,10.30
2023-03-27T10:05:03.557Z,9.20
2023-03-27T10:06:03.609Z,8.20
2023-03-27T10:07:03.520Z,9.40
2023-03-27T10:08:03.615Z,7.60
2023-03-27T10:09:03.508Z,11.50
2023-03-27T10:10:03.642Z,11.20
2023-03-27T10:11:03.499Z,9.00
2023-03-27T10:12:03.497Z,9.60
2023-03-27T10:13:03.462Z,8.70
2023-03-27T10:14:03.468Z,7.20
2023-03-27T10:15:03.434Z,9.80
2023-03-27T10:16:03.489Z,9.80
2023-03-27T10:17:03.460Z,7.90
2023-03-27T10:18:03.460Z,8.90
2023-03-27T10:19:03.400Z,6.00
2023-03-27T10:20:03.460Z,11.10
2023-03-27T10:21:03.389Z,11.70
2023-03-27T10:22:03.392Z,9.30
2023-03-27T10:23:03.390Z,9.30
2023-03-27T10:24:03.395Z,7.90
2023-03-27T10:25:03.328Z,11.10
2023-03-27T10:26:03.387Z,8.30
2023-03-27T10:27:03.320Z,6.90
2023-03-27T10:28:03.298Z,7.80
2023-03-27T10:29:03.303Z,5.70
2023-03-27T10:30:03.348Z,11.70
2023-03-27T10:31:03.314Z,10.70
2023-03-27T10:32:03.386Z,7.50
2023-03-27T10:33:03.285Z,7.90
2023-03-27T10:34:03.237Z,9.70
2023-03-27T10:35:03.240Z,8.10
2023-03-27T10:36:03.345Z,7.70
2023-03-27T10:37:03.244Z,9.00
2023-03-27T10:38:03.333Z,10.00
2023-03-27T10:39:03.179Z,9.40
2023-03-27T10:40:03.233Z,9.90
2023-03-27T10:41:03.163Z,4.90
2023-03-27T10:42:03.161Z,9.90
2023-03-27T10:43:03.130Z,5.90
2023-03-27T10:44:03.221Z,9.10
2023-03-27T10:45:03.127Z,8.10
2023-03-27T10:46:03.173Z,10.20
2023-03-27T10:47:03.132Z,6.80
2023-03-27T10:48:03.178Z,10.10
2023-03-27T10:49:03.067Z,6.20
2023-03-27T10:50:03.189Z,5.80
2023-03-27T10:51:03.077Z,6.80
2023-03-27T10:52:03.064Z,6.80
2023-03-27T10:53:03.078Z,4.80
2023-03-27T10:54:03.175Z,4.00
2023-03-27T10:55:03.003Z,6.30
2023-03-27T10:56:03.049Z,5.00
2023-03-27T10:57:03.089Z,5.70
2023-03-27T10:58:03.046Z,8.50
2023-03-27T10:59:02.992Z,6.70
2023-03-27T11:00:03.035Z,4.70
2023-03-27T11:01:03.048Z,6.90
2023-03-27T11:02:02.976Z,6.50
2023-03-27T11:03:02.922Z,7.00
2023-03-27T11:04:03.000Z,5.70
2023-03-27T11:05:02.895Z,9.60
2023-03-27T11:06:02.957Z,6.20
2023-03-27T11:07:02.862Z,5.70
2023-03-27T11:08:02.929Z,7.00
2023-03-27T11:09:02.851Z,6.20
2023-03-27T11:10:02.831Z,7.90
2023-03-27T11:11:02.862Z,6.60
2023-03-27T11:12:02.881Z,5.70
2023-03-27T11:13:02.816Z,8.40
2023-03-27T11:14:02.800Z,8.70
2023-03-27T11:15:02.805Z,9.90
2023-03-27T11:16:02.814Z,8.30
2023-03-27T11:17:02.839Z,6.10
2023-03-27T11:18:02.804Z,6.80
2023-03-27T11:19:02.833Z,6.00
2023-03-27T11:20:02.734Z,9.00
2023-03-27T11:21:02.761Z,5.50
2023-03-27T11:22:02.777Z,6.90
2023-03-27T11:23:02.733Z,6.20
2023-03-27T11:24:02.790Z,6.80
2023-03-27T11:25:02.679Z,10.10
2023-03-27T11:26:02.814Z,6.30
2023-03-27T11:27:02.658Z,8.30
2023-03-27T11:28:02.739Z,6.00
2023-03-27T11:29:02.638Z,7.60
2023-03-27T11:30:02.640Z,5.80
2023-03-27T11:31:12.288Z,11.00
2023-03-27T11:32:03.681Z,5.20
2023-03-27T11:33:02.675Z,3.60
2023-03-27T11:34:02.615Z,6.10
2023-03-27T11:35:04.048Z,4.90
2023-03-27T11:36:02.752Z,4.90
2023-03-27T11:37:02.549Z,9.20
2023-03-27T11:38:02.596Z,8.20
2023-03-27T11:39:02.545Z,10.70
2023-03-27T11:40:02.575Z,6.90
2023-03-27T11:41:02.535Z,9.60
2023-03-27T11:42:02.549Z,9.80
2023-03-27T11:43:02.484Z,7.60
2023-03-27T11:44:02.585Z,7.00
2023-03-27T11:45:02.465Z,5.20
2023-03-27T11:46:02.522Z,7.40
2023-03-27T11:47:02.453Z,6.70
2023-03-27T11:48:02.529Z,8.10
2023-03-27T11:49:02.418Z,7.90
2023-03-27T11:50:02.452Z,7.00
2023-03-27T11:51:02.404Z,5.70
2023-03-27T11:52:02.602Z,4.90
2023-03-27T11:53:02.380Z,9.10
2023-03-27T11:54:02.385Z,7.40
2023-03-27T11:55:02.359Z,5.60
2023-03-27T11:56:02.371Z,6.20
2023-03-27T11:57:02.469Z,8.90
2023-03-27T11:58:02.334Z,7.10
2023-03-27T11:59:02.333Z,8.20
2023-03-27T12:00:02.372Z,4.60
2023-03-27T12:01:02.302Z,8.10
2023-03-27T12:02:02.426Z,8.50
2023-03-27T12:03:02.410Z,6.10
2023-03-27T12:04:02.391Z,5.70
2023-03-27T12:05:02.252Z,6.10
2023-03-27T12:06:02.446Z,4.70
2023-03-27T12:07:04.826Z,6.00
2023-03-27T12:08:02.280Z,4.70
2023-03-27T12:09:02.212Z,4.60
2023-03-27T12:10:02.214Z,5.20
2023-03-27T12:11:02.195Z,6.30
2023-03-27T12:12:02.221Z,5.50
2023-03-27T12:13:02.214Z,6.80
2023-03-27T12:14:03.416Z,7.50
2023-03-27T12:15:02.178Z,6.50
2023-03-27T12:16:02.186Z,7.00
2023-03-27T12:17:02.124Z,6.50
2023-03-27T12:18:02.260Z,4.80
2023-03-27T12:19:08.066Z,4.70
2023-03-27T12:20:03.206Z,7.60
2023-03-27T12:21:02.294Z,6.50
2023-03-27T12:22:05.287Z,7.60
2023-03-27T12:23:03.074Z,5.90
2023-03-27T12:24:02.051Z,7.10
2023-03-27T12:25:02.025Z,9.40
2023-03-27T12:26:02.151Z,6.60
2023-03-27T12:27:02.715Z,4.90
2023-03-27T12:28:02.049Z,3.50
2023-03-27T12:29:02.024Z,3.80
2023-03-27T12:30:02.032Z,5.00
2023-03-27T12:31:02.008Z,7.40
2023-03-27T12:32:02.113Z,4.20
2023-03-27T12:33:01.946Z,4.90
2023-03-27T12:34:01.952Z,4.90
2023-03-27T12:35:01.915Z,3.30
2023-03-27T12:36:02.083Z,3.40
2023-03-27T12:37:01.902Z,4.20
2023-03-27T12:38:01.894Z,5.00
2023-03-27T12:39:01.910Z,3.70
2023-03-27T12:40:01.872Z,5.10
2023-03-27T12:41:01.863Z,5.60
2023-03-27T12:42:01.862Z,5.00
2023-03-27T12:43:01.888Z,3.20
2023-03-27T12:44:01.947Z,4.60
2023-03-27T12:45:01.829Z,4.60
2023-03-27T12:46:02.038Z,4.60
2023-03-27T12:47:01.794Z,4.00
2023-03-27T12:48:01.835Z,4.90
2023-03-27T12:49:01.757Z,3.20
2023-03-27T12:50:01.757Z,5.20
2023-03-27T12:51:01.760Z,4.50
2023-03-27T12:52:01.731Z,6.40
2023-03-27T12:53:01.764Z,6.30
2023-03-27T12:54:01.715Z,4.40
2023-03-27T12:55:01.701Z,5.20
2023-03-27T12:56:01.753Z,5.30
2023-03-27T12:57:01.735Z,4.30
2023-03-27T12:58:02.017Z,5.20
2023-03-27T12:59:01.667Z,6.10
2023-03-27T13:00:01.669Z,6.20
2023-03-27T13:01:01.707Z,6.40
2023-03-27T13:02:01.671Z,6.70
2023-03-27T13:03:01.726Z,2.70
2023-03-27T13:04:01.755Z,4.10